sensor_id;sensor_type;location;lat;lon;timestamp;temperature;humidity
69464;DHT22;56665;41.106;16.688;2022-08-05T00:00:31;25.59;64.73
69464;DHT22;56665;41.106;16.688;2022-08-05T00:03:35;25.55;64.60
69464;DHT22;56665;41.106;16.688;2022-08-05T00:06:39;25.55;64.19
69464;DHT22;56665;41.106;16.688;2022-08-05T00:09:42;25.48;64.04
69464;DHT22;56665;41.106;16.688;2022-08-05T00:12:47;25.45;64.06
69464;DHT22;56665;41.106;16.688;2022-08-05T00:15:52;25.41;63.84
69464;DHT22;56665;41.106;16.688;2022-08-05T00:18:55;25.35;63.69
69464;DHT22;56665;41.106;16.688;2022-08-05T00:22:00;25.30;63.51
69464;DHT22;56665;41.106;16.688;2022-08-05T00:25:05;25.27;62.73
69464;DHT22;56665;41.106;16.688;2022-08-05T00:28:09;25.30;62.15
69464;DHT22;56665;41.106;16.688;2022-08-05T00:31:14;25.24;61.23
69464;DHT22;56665;41.106;16.688;2022-08-05T00:34:17;25.22;60.92
69464;DHT22;56665;41.106;16.688;2022-08-05T00:37:21;25.17;60.81
69464;DHT22;56665;41.106;16.688;2022-08-05T00:40:26;25.17;60.68
69464;DHT22;56665;41.106;16.688;2022-08-05T00:43:29;25.15;60.69
69464;DHT22;56665;41.106;16.688;2022-08-05T00:46:35;25.13;60.46
69464;DHT22;56665;41.106;16.688;2022-08-05T00:49:38;25.10;60.39
69464;DHT22;56665;41.106;16.688;2022-08-05T00:52:42;25.06;60.35
69464;DHT22;56665;41.106;16.688;2022-08-05T00:55:46;25.01;60.50
69464;DHT22;56665;41.106;16.688;2022-08-05T00:58:50;25.00;60.50
69464;DHT22;56665;41.106;16.688;2022-08-05T01:01:54;24.99;60.47
69464;DHT22;56665;41.106;16.688;2022-08-05T01:04:59;24.96;60.55
69464;DHT22;56665;41.106;16.688;2022-08-05T01:08:03;24.91;60.57
69464;DHT22;56665;41.106;16.688;2022-08-05T01:11:15;24.88;60.55
69464;DHT22;56665;41.106;16.688;2022-08-05T01:14:32;24.88;60.55
69464;DHT22;56665;41.106;16.688;2022-08-05T01:18:00;24.86;60.29
69464;DHT22;56665;41.106;16.688;2022-08-05T01:21:35;24.86;60.19
69464;DHT22;56665;41.106;16.688;2022-08-05T01:31:32;24.69;60.51
69464;DHT22;56665;41.106;16.688;2022-08-05T01:35:08;24.62;60.68
69464;DHT22;56665;41.106;16.688;2022-08-05T01:38:13;24.63;60.79
69464;DHT22;56665;41.106;16.688;2022-08-05T01:41:20;24.60;60.89
69464;DHT22;56665;41.106;16.688;2022-08-05T01:44:26;24.57;60.88
69464;DHT22;56665;41.106;16.688;2022-08-05T01:47:32;24.59;60.96
69464;DHT22;56665;41.106;16.688;2022-08-05T01:50:38;24.62;60.72
69464;DHT22;56665;41.106;16.688;2022-08-05T01:53:45;24.60;61.01
69464;DHT22;56665;41.106;16.688;2022-08-05T01:56:51;24.57;60.90
69464;DHT22;56665;41.106;16.688;2022-08-05T02:00:00;24.53;61.05
69464;DHT22;56665;41.106;16.688;2022-08-05T02:03:33;24.51;61.04
69464;DHT22;56665;41.106;16.688;2022-08-05T02:06:39;24.52;61.08
69464;DHT22;56665;41.106;16.688;2022-08-05T02:09:44;24.48;61.13
69464;DHT22;56665;41.106;16.688;2022-08-05T02:13:02;24.49;61.07
69464;DHT22;56665;41.106;16.688;2022-08-05T02:22:38;24.49;60.81
69464;DHT22;56665;41.106;16.688;2022-08-05T02:25:44;24.51;60.59
69464;DHT22;56665;41.106;16.688;2022-08-05T02:28:49;24.48;60.44
69464;DHT22;56665;41.106;16.688;2022-08-05T02:31:56;24.45;60.20
69464;DHT22;56665;41.106;16.688;2022-08-05T02:35:02;24.42;60.41
69464;DHT22;56665;41.106;16.688;2022-08-05T02:38:07;24.36;60.23
69464;DHT22;56665;41.106;16.688;2022-08-05T02:41:13;24.39;60.03
69464;DHT22;56665;41.106;16.688;2022-08-05T02:44:19;24.35;59.86
69464;DHT22;56665;41.106;16.688;2022-08-05T02:47:24;24.35;59.71
69464;DHT22;56665;41.106;16.688;2022-08-05T02:50:30;24.35;59.61
69464;DHT22;56665;41.106;16.688;2022-08-05T02:53:36;24.33;59.29
69464;DHT22;56665;41.106;16.688;2022-08-05T02:56:42;24.36;59.07
69464;DHT22;56665;41.106;16.688;2022-08-05T02:59:33;24.35;58.97
69464;DHT22;56665;41.106;16.688;2022-08-05T03:02:39;24.35;58.63
69464;DHT22;56665;41.106;16.688;2022-08-05T03:05:47;24.38;58.56
69464;DHT22;56665;41.106;16.688;2022-08-05T03:08:52;24.41;58.27
69464;DHT22;56665;41.106;16.688;2022-08-05T03:11:57;24.41;58.19
69464;DHT22;56665;41.106;16.688;2022-08-05T03:15:01;24.41;57.74
69464;DHT22;56665;41.106;16.688;2022-08-05T03:18:06;24.39;57.73
69464;DHT22;56665;41.106;16.688;2022-08-05T03:21:10;24.42;57.58
69464;DHT22;56665;41.106;16.688;2022-08-05T03:24:14;24.46;57.31
69464;DHT22;56665;41.106;16.688;2022-08-05T03:27:19;24.46;57.15
69464;DHT22;56665;41.106;16.688;2022-08-05T03:30:23;24.49;57.06
69464;DHT22;56665;41.106;16.688;2022-08-05T03:33:27;24.49;57.10
69464;DHT22;56665;41.106;16.688;2022-08-05T03:36:31;24.45;57.14
69464;DHT22;56665;41.106;16.688;2022-08-05T03:39:36;24.46;56.97
69464;DHT22;56665;41.106;16.688;2022-08-05T03:42:40;24.45;56.66
69464;DHT22;56665;41.106;16.688;2022-08-05T03:45:45;24.49;56.61
69464;DHT22;56665;41.106;16.688;2022-08-05T03:48:49;24.51;56.17
69464;DHT22;56665;41.106;16.688;2022-08-05T03:52:00;24.49;56.42
69464;DHT22;56665;41.106;16.688;2022-08-05T03:55:07;24.49;56.27
69464;DHT22;56665;41.106;16.688;2022-08-05T03:58:15;24.43;56.47
69464;DHT22;56665;41.106;16.688;2022-08-05T04:01:21;24.43;56.40
69464;DHT22;56665;41.106;16.688;2022-08-05T04:04:26;24.43;56.28
69464;DHT22;56665;41.106;16.688;2022-08-05T04:07:33;24.39;56.05
69464;DHT22;56665;41.106;16.688;2022-08-05T04:10:37;24.43;55.86
69464;DHT22;56665;41.106;16.688;2022-08-05T04:13:41;24.43;55.78
69464;DHT22;56665;41.106;16.688;2022-08-05T04:16:45;24.45;55.65
69464;DHT22;56665;41.106;16.688;2022-08-05T04:19:49;24.51;55.41
69464;DHT22;56665;41.106;16.688;2022-08-05T04:22:53;24.55;55.38
69464;DHT22;56665;41.106;16.688;2022-08-05T04:25:57;24.56;54.94
69464;DHT22;56665;41.106;16.688;2022-08-05T04:29:01;24.62;54.88
69464;DHT22;56665;41.106;16.688;2022-08-05T04:32:06;24.64;54.91
69464;DHT22;56665;41.106;16.688;2022-08-05T04:35:11;24.73;54.75
69464;DHT22;56665;41.106;16.688;2022-08-05T04:38:15;24.77;54.79
69464;DHT22;56665;41.106;16.688;2022-08-05T04:41:19;24.86;54.55
69464;DHT22;56665;41.106;16.688;2022-08-05T04:44:23;24.93;54.30
69464;DHT22;56665;41.106;16.688;2022-08-05T04:47:27;25.03;54.10
69464;DHT22;56665;41.106;16.688;2022-08-05T04:50:36;25.22;53.94
69464;DHT22;56665;41.106;16.688;2022-08-05T04:53:41;25.41;53.57
69464;DHT22;56665;41.106;16.688;2022-08-05T04:56:45;25.61;53.08
69464;DHT22;56665;41.106;16.688;2022-08-05T05:00:05;25.79;52.61
69464;DHT22;56665;41.106;16.688;2022-08-05T05:03:09;26.02;52.55
69464;DHT22;56665;41.106;16.688;2022-08-05T05:06:13;26.21;52.12
69464;DHT22;56665;41.106;16.688;2022-08-05T05:09:17;26.43;51.80
69464;DHT22;56665;41.106;16.688;2022-08-05T05:12:22;26.67;51.37
69464;DHT22;56665;41.106;16.688;2022-08-05T05:15:26;26.88;50.85
69464;DHT22;56665;41.106;16.688;2022-08-05T05:18:30;27.09;50.47
69464;DHT22;56665;41.106;16.688;2022-08-05T05:21:35;27.33;49.90
69464;DHT22;56665;41.106;16.688;2022-08-05T05:24:39;27.57;49.65
69464;DHT22;56665;41.106;16.688;2022-08-05T05:27:43;27.78;49.45
69464;DHT22;56665;41.106;16.688;2022-08-05T05:30:47;27.94;49.32
69464;DHT22;56665;41.106;16.688;2022-08-05T05:33:51;28.17;49.10
69464;DHT22;56665;41.106;16.688;2022-08-05T05:36:55;28.36;48.66
69464;DHT22;56665;41.106;16.688;2022-08-05T05:40:00;28.58;48.36
69464;DHT22;56665;41.106;16.688;2022-08-05T05:43:04;28.80;47.63
69464;DHT22;56665;41.106;16.688;2022-08-05T05:46:07;29.06;47.12
69464;DHT22;56665;41.106;16.688;2022-08-05T05:49:11;29.28;46.84
69464;DHT22;56665;41.106;16.688;2022-08-05T05:52:15;29.54;46.41
69464;DHT22;56665;41.106;16.688;2022-08-05T05:55:19;29.84;45.94
69464;DHT22;56665;41.106;16.688;2022-08-05T05:58:22;30.14;45.63
69464;DHT22;56665;41.106;16.688;2022-08-05T06:01:26;30.47;45.12
69464;DHT22;56665;41.106;16.688;2022-08-05T06:04:30;30.72;44.69
69464;DHT22;56665;41.106;16.688;2022-08-05T06:07:35;31.05;44.01
69464;DHT22;56665;41.106;16.688;2022-08-05T06:10:39;31.21;43.48
69464;DHT22;56665;41.106;16.688;2022-08-05T06:13:42;31.47;43.09
69464;DHT22;56665;41.106;16.688;2022-08-05T06:16:46;31.78;42.72
69464;DHT22;56665;41.106;16.688;2022-08-05T06:19:50;32.11;42.09
69464;DHT22;56665;41.106;16.688;2022-08-05T06:22:54;32.25;41.70
69464;DHT22;56665;41.106;16.688;2022-08-05T06:25:58;32.59;41.29
69464;DHT22;56665;41.106;16.688;2022-08-05T06:29:02;32.86;41.25
69464;DHT22;56665;41.106;16.688;2022-08-05T06:32:05;33.06;40.91
69464;DHT22;56665;41.106;16.688;2022-08-05T06:35:09;33.22;40.74
69464;DHT22;56665;41.106;16.688;2022-08-05T06:38:13;33.39;41.01
69464;DHT22;56665;41.106;16.688;2022-08-05T06:41:16;33.65;40.28
69464;DHT22;56665;41.106;16.688;2022-08-05T06:44:20;33.71;39.95
69464;DHT22;56665;41.106;16.688;2022-08-05T06:47:23;33.99;39.48
69464;DHT22;56665;41.106;16.688;2022-08-05T06:50:27;34.08;39.51
69464;DHT22;56665;41.106;16.688;2022-08-05T06:53:31;34.49;38.94
69464;DHT22;56665;41.106;16.688;2022-08-05T06:56:34;34.84;38.66
69464;DHT22;56665;41.106;16.688;2022-08-05T06:59:39;35.11;38.05
69464;DHT22;56665;41.106;16.688;2022-08-05T07:02:46;35.45;37.20
69464;DHT22;56665;41.106;16.688;2022-08-05T07:05:50;35.58;37.21
69464;DHT22;56665;41.106;16.688;2022-08-05T07:08:54;35.76;37.41
69464;DHT22;56665;41.106;16.688;2022-08-05T07:11:58;35.97;37.27
69464;DHT22;56665;41.106;16.688;2022-08-05T07:15:01;36.32;36.78
69464;DHT22;56665;41.106;16.688;2022-08-05T07:18:24;36.58;36.39
69464;DHT22;56665;41.106;16.688;2022-08-05T07:21:28;36.85;36.21
69464;DHT22;56665;41.106;16.688;2022-08-05T07:24:33;37.19;35.83
69464;DHT22;56665;41.106;16.688;2022-08-05T07:27:37;37.41;35.96
69464;DHT22;56665;41.106;16.688;2022-08-05T07:30:41;37.69;35.61
69464;DHT22;56665;41.106;16.688;2022-08-05T07:33:45;38.07;35.28
69464;DHT22;56665;41.106;16.688;2022-08-05T07:36:48;38.38;34.94
69464;DHT22;56665;41.106;16.688;2022-08-05T07:39:52;38.88;34.38
69464;DHT22;56665;41.106;16.688;2022-08-05T07:42:56;39.47;33.69
69464;DHT22;56665;41.106;16.688;2022-08-05T07:46:00;40.38;32.63
69464;DHT22;56665;41.106;16.688;2022-08-05T07:49:03;41.82;31.15
69464;DHT22;56665;41.106;16.688;2022-08-05T07:52:07;43.18;29.69
69464;DHT22;56665;41.106;16.688;2022-08-05T07:55:11;44.66;28.37
69464;DHT22;56665;41.106;16.688;2022-08-05T07:58:14;46.24;26.84
69464;DHT22;56665;41.106;16.688;2022-08-05T08:01:19;47.06;25.99
69464;DHT22;56665;41.106;16.688;2022-08-05T08:04:23;47.97;25.26
69464;DHT22;56665;41.106;16.688;2022-08-05T08:07:27;48.54;24.58
69464;DHT22;56665;41.106;16.688;2022-08-05T08:10:31;48.66;23.88
69464;DHT22;56665;41.106;16.688;2022-08-05T08:13:34;48.66;24.10
69464;DHT22;56665;41.106;16.688;2022-08-05T08:16:38;49.07;23.56
69464;DHT22;56665;41.106;16.688;2022-08-05T08:19:43;49.03;23.53
69464;DHT22;56665;41.106;16.688;2022-08-05T08:22:52;49.10;23.65
69464;DHT22;56665;41.106;16.688;2022-08-05T08:25:56;49.40;23.69
69464;DHT22;56665;41.106;16.688;2022-08-05T08:29:00;49.77;23.23
69464;DHT22;56665;41.106;16.688;2022-08-05T08:32:04;49.53;23.62
69464;DHT22;56665;41.106;16.688;2022-08-05T08:35:08;49.53;23.48
69464;DHT22;56665;41.106;16.688;2022-08-05T08:38:12;49.57;23.00
69464;DHT22;56665;41.106;16.688;2022-08-05T08:41:18;49.39;22.87
69464;DHT22;56665;41.106;16.688;2022-08-05T08:44:23;49.44;22.94
69464;DHT22;56665;41.106;16.688;2022-08-05T08:47:29;49.25;23.26
69464;DHT22;56665;41.106;16.688;2022-08-05T08:50:35;48.75;23.69
69464;DHT22;56665;41.106;16.688;2022-08-05T08:53:41;49.12;23.33
69464;DHT22;56665;41.106;16.688;2022-08-05T08:56:45;49.19;23.60
69464;DHT22;56665;41.106;16.688;2022-08-05T08:59:49;48.66;23.94
69464;DHT22;56665;41.106;16.688;2022-08-05T09:02:53;48.35;24.38
69464;DHT22;56665;41.106;16.688;2022-08-05T09:05:58;48.24;24.26
69464;DHT22;56665;41.106;16.688;2022-08-05T09:09:02;48.06;24.15
69464;DHT22;56665;41.106;16.688;2022-08-05T09:12:09;47.77;24.52
69464;DHT22;56665;41.106;16.688;2022-08-05T09:15:12;47.33;24.24
69464;DHT22;56665;41.106;16.688;2022-08-05T09:18:16;47.09;23.85
69464;DHT22;56665;41.106;16.688;2022-08-05T09:21:20;46.72;24.06
69464;DHT22;56665;41.106;16.688;2022-08-05T09:24:27;46.55;24.08
69464;DHT22;56665;41.106;16.688;2022-08-05T09:27:35;45.89;24.92
69464;DHT22;56665;41.106;16.688;2022-08-05T09:31:04;45.52;25.40
69464;DHT22;56665;41.106;16.688;2022-08-05T09:34:07;45.11;25.52
69464;DHT22;56665;41.106;16.688;2022-08-05T09:37:18;44.64;25.78
69464;DHT22;56665;41.106;16.688;2022-08-05T09:43:35;42.59;27.97
69464;DHT22;56665;41.106;16.688;2022-08-05T09:46:39;42.05;27.69
69464;DHT22;56665;41.106;16.688;2022-08-05T09:49:47;42.29;28.02
69464;DHT22;56665;41.106;16.688;2022-08-05T09:52:56;41.02;29.77
69464;DHT22;56665;41.106;16.688;2022-08-05T09:56:01;41.04;30.16
69464;DHT22;56665;41.106;16.688;2022-08-05T09:59:10;40.85;30.47
69464;DHT22;56665;41.106;16.688;2022-08-05T10:02:32;40.36;31.45
69464;DHT22;56665;41.106;16.688;2022-08-05T10:05:36;40.35;31.41
69464;DHT22;56665;41.106;16.688;2022-08-05T10:08:41;39.91;31.83
69464;DHT22;56665;41.106;16.688;2022-08-05T10:11:44;39.76;31.91
69464;DHT22;56665;41.106;16.688;2022-08-05T10:14:48;39.33;32.48
69464;DHT22;56665;41.106;16.688;2022-08-05T10:21:13;39.86;31.78
69464;DHT22;56665;41.106;16.688;2022-08-05T10:24:18;39.45;32.83
69464;DHT22;56665;41.106;16.688;2022-08-05T10:27:22;39.46;32.45
69464;DHT22;56665;41.106;16.688;2022-08-05T10:30:27;39.43;32.43
69464;DHT22;56665;41.106;16.688;2022-08-05T10:33:33;39.09;32.82
69464;DHT22;56665;41.106;16.688;2022-08-05T10:36:40;39.60;32.43
69464;DHT22;56665;41.106;16.688;2022-08-05T10:39:44;39.09;33.27
69464;DHT22;56665;41.106;16.688;2022-08-05T10:42:53;38.72;34.14
69464;DHT22;56665;41.106;16.688;2022-08-05T10:46:06;38.48;35.08
69464;DHT22;56665;41.106;16.688;2022-08-05T10:49:10;37.99;35.82
69464;DHT22;56665;41.106;16.688;2022-08-05T10:52:37;38.37;35.31
69464;DHT22;56665;41.106;16.688;2022-08-05T10:56:01;38.79;34.55
69464;DHT22;56665;41.106;16.688;2022-08-05T10:59:05;38.78;34.52
69464;DHT22;56665;41.106;16.688;2022-08-05T11:02:11;38.40;34.68
69464;DHT22;56665;41.106;16.688;2022-08-05T11:05:15;37.76;36.14
69464;DHT22;56665;41.106;16.688;2022-08-05T11:08:19;37.51;36.44
69464;DHT22;56665;41.106;16.688;2022-08-05T11:11:36;37.62;35.66
69464;DHT22;56665;41.106;16.688;2022-08-05T11:14:40;37.80;36.17
69464;DHT22;56665;41.106;16.688;2022-08-05T11:17:54;37.62;36.43
69464;DHT22;56665;41.106;16.688;2022-08-05T11:21:30;38.10;35.70
69464;DHT22;56665;41.106;16.688;2022-08-05T11:24:35;37.63;34.94
69464;DHT22;56665;41.106;16.688;2022-08-05T11:27:38;37.84;35.68
69464;DHT22;56665;41.106;16.688;2022-08-05T11:34:04;37.55;36.34
69464;DHT22;56665;41.106;16.688;2022-08-05T11:37:08;37.79;36.72
69464;DHT22;56665;41.106;16.688;2022-08-05T11:40:11;37.14;38.45
69464;DHT22;56665;41.106;16.688;2022-08-05T11:43:21;36.73;39.19
69464;DHT22;56665;41.106;16.688;2022-08-05T11:46:35;37.02;39.71
69464;DHT22;56665;41.106;16.688;2022-08-05T11:49:39;37.62;40.13
69464;DHT22;56665;41.106;16.688;2022-08-05T11:52:43;36.98;40.81
69464;DHT22;56665;41.106;16.688;2022-08-05T11:55:54;37.18;40.58
69464;DHT22;56665;41.106;16.688;2022-08-05T11:58:59;36.29;39.16
69464;DHT22;56665;41.106;16.688;2022-08-05T12:02:06;36.25;40.39
69464;DHT22;56665;41.106;16.688;2022-08-05T12:05:24;36.62;39.99
69464;DHT22;56665;41.106;16.688;2022-08-05T12:08:29;36.47;40.21
69464;DHT22;56665;41.106;16.688;2022-08-05T12:11:32;36.22;39.28
69464;DHT22;56665;41.106;16.688;2022-08-05T12:14:38;36.37;38.53
69464;DHT22;56665;41.106;16.688;2022-08-05T12:17:42;36.27;39.80
69464;DHT22;56665;41.106;16.688;2022-08-05T12:20:46;36.06;38.41
69464;DHT22;56665;41.106;16.688;2022-08-05T12:23:59;36.25;39.24
69464;DHT22;56665;41.106;16.688;2022-08-05T12:27:04;35.55;39.62
69464;DHT22;56665;41.106;16.688;2022-08-05T12:30:09;35.74;40.05
69464;DHT22;56665;41.106;16.688;2022-08-05T12:33:13;35.20;40.24
69464;DHT22;56665;41.106;16.688;2022-08-05T12:36:17;35.33;40.38
69464;DHT22;56665;41.106;16.688;2022-08-05T12:39:25;35.61;40.31
69464;DHT22;56665;41.106;16.688;2022-08-05T12:42:29;35.71;39.81
69464;DHT22;56665;41.106;16.688;2022-08-05T12:45:33;35.68;40.87
69464;DHT22;56665;41.106;16.688;2022-08-05T12:48:38;35.15;42.14
69464;DHT22;56665;41.106;16.688;2022-08-05T12:52:02;35.34;42.73
69464;DHT22;56665;41.106;16.688;2022-08-05T12:58:23;35.23;42.34
69464;DHT22;56665;41.106;16.688;2022-08-05T13:01:27;35.27;41.60
69464;DHT22;56665;41.106;16.688;2022-08-05T13:04:33;35.51;41.00
69464;DHT22;56665;41.106;16.688;2022-08-05T13:07:38;35.44;40.05
69464;DHT22;56665;41.106;16.688;2022-08-05T13:10:44;35.71;40.47
69464;DHT22;56665;41.106;16.688;2022-08-05T13:13:50;35.39;41.56
69464;DHT22;56665;41.106;16.688;2022-08-05T13:16:56;35.26;40.81
69464;DHT22;56665;41.106;16.688;2022-08-05T13:20:07;35.48;41.73
69464;DHT22;56665;41.106;16.688;2022-08-05T13:23:12;35.48;42.16
69464;DHT22;56665;41.106;16.688;2022-08-05T13:26:15;35.72;42.84
69464;DHT22;56665;41.106;16.688;2022-08-05T13:29:19;35.01;43.28
69464;DHT22;56665;41.106;16.688;2022-08-05T13:32:23;34.86;43.39
69464;DHT22;56665;41.106;16.688;2022-08-05T13:35:27;34.64;43.81
69464;DHT22;56665;41.106;16.688;2022-08-05T13:38:31;34.74;43.14
69464;DHT22;56665;41.106;16.688;2022-08-05T13:41:35;34.67;43.38
69464;DHT22;56665;41.106;16.688;2022-08-05T13:44:38;34.93;41.91
69464;DHT22;56665;41.106;16.688;2022-08-05T13:47:42;34.61;41.99
69464;DHT22;56665;41.106;16.688;2022-08-05T13:50:47;34.56;42.01
69464;DHT22;56665;41.106;16.688;2022-08-05T13:53:51;34.77;42.02
69464;DHT22;56665;41.106;16.688;2022-08-05T13:56:54;34.98;40.95
69464;DHT22;56665;41.106;16.688;2022-08-05T13:59:58;34.84;40.83
69464;DHT22;56665;41.106;16.688;2022-08-05T14:03:03;35.33;40.66
69464;DHT22;56665;41.106;16.688;2022-08-05T14:06:07;35.00;40.60
69464;DHT22;56665;41.106;16.688;2022-08-05T14:09:12;35.08;40.93
69464;DHT22;56665;41.106;16.688;2022-08-05T14:12:15;35.10;40.47
69464;DHT22;56665;41.106;16.688;2022-08-05T14:15:19;34.60;41.79
69464;DHT22;56665;41.106;16.688;2022-08-05T14:18:23;34.40;41.45
69464;DHT22;56665;41.106;16.688;2022-08-05T14:21:28;34.61;40.47
69464;DHT22;56665;41.106;16.688;2022-08-05T14:24:32;34.77;40.62
69464;DHT22;56665;41.106;16.688;2022-08-05T14:27:37;34.80;40.12
69464;DHT22;56665;41.106;16.688;2022-08-05T14:30:41;34.84;40.48
69464;DHT22;56665;41.106;16.688;2022-08-05T14:33:44;35.01;39.98
69464;DHT22;56665;41.106;16.688;2022-08-05T14:36:50;34.93;39.57
69464;DHT22;56665;41.106;16.688;2022-08-05T14:39:54;34.66;38.19
69464;DHT22;56665;41.106;16.688;2022-08-05T14:42:59;34.49;38.97
69464;DHT22;56665;41.106;16.688;2022-08-05T14:46:04;34.50;40.41
69464;DHT22;56665;41.106;16.688;2022-08-05T14:49:08;34.06;41.70
69464;DHT22;56665;41.106;16.688;2022-08-05T14:52:12;34.39;41.33
69464;DHT22;56665;41.106;16.688;2022-08-05T14:55:15;33.95;42.57
69464;DHT22;56665;41.106;16.688;2022-08-05T14:58:19;33.75;41.40
69464;DHT22;56665;41.106;16.688;2022-08-05T15:01:23;33.75;43.34
69464;DHT22;56665;41.106;16.688;2022-08-05T15:04:27;33.65;43.66
69464;DHT22;56665;41.106;16.688;2022-08-05T15:07:32;33.55;43.12
69464;DHT22;56665;41.106;16.688;2022-08-05T15:10:35;33.77;43.28
69464;DHT22;56665;41.106;16.688;2022-08-05T15:13:40;33.72;42.96
69464;DHT22;56665;41.106;16.688;2022-08-05T15:16:44;33.47;42.95
69464;DHT22;56665;41.106;16.688;2022-08-05T15:19:48;33.37;42.97
69464;DHT22;56665;41.106;16.688;2022-08-05T15:22:51;33.40;43.44
69464;DHT22;56665;41.106;16.688;2022-08-05T15:25:55;33.30;44.25
69464;DHT22;56665;41.106;16.688;2022-08-05T15:28:59;33.20;44.67
69464;DHT22;56665;41.106;16.688;2022-08-05T15:32:03;33.19;44.22
69464;DHT22;56665;41.106;16.688;2022-08-05T15:35:07;33.06;44.02
69464;DHT22;56665;41.106;16.688;2022-08-05T15:38:11;32.93;44.60
69464;DHT22;56665;41.106;16.688;2022-08-05T15:41:17;32.83;44.49
69464;DHT22;56665;41.106;16.688;2022-08-05T15:44:21;32.61;45.29
69464;DHT22;56665;41.106;16.688;2022-08-05T15:47:24;32.66;45.11
69464;DHT22;56665;41.106;16.688;2022-08-05T15:50:29;32.65;44.13
69464;DHT22;56665;41.106;16.688;2022-08-05T15:53:32;32.68;43.21
69464;DHT22;56665;41.106;16.688;2022-08-05T15:56:36;32.58;44.57
69464;DHT22;56665;41.106;16.688;2022-08-05T15:59:40;32.52;42.96
69464;DHT22;56665;41.106;16.688;2022-08-05T16:02:44;32.38;42.58
69464;DHT22;56665;41.106;16.688;2022-08-05T16:05:47;32.14;42.99
69464;DHT22;56665;41.106;16.688;2022-08-05T16:08:51;32.14;42.73
69464;DHT22;56665;41.106;16.688;2022-08-05T16:11:55;31.95;43.14
69464;DHT22;56665;41.106;16.688;2022-08-05T16:15:00;32.03;43.85
69464;DHT22;56665;41.106;16.688;2022-08-05T16:18:04;31.93;43.16
69464;DHT22;56665;41.106;16.688;2022-08-05T16:21:08;31.91;43.17
69464;DHT22;56665;41.106;16.688;2022-08-05T16:24:11;31.91;44.08
69464;DHT22;56665;41.106;16.688;2022-08-05T16:27:15;31.93;40.91
69464;DHT22;56665;41.106;16.688;2022-08-05T16:30:19;31.88;39.85
69464;DHT22;56665;41.106;16.688;2022-08-05T16:33:23;31.78;39.66
69464;DHT22;56665;41.106;16.688;2022-08-05T16:36:28;31.70;41.40
69464;DHT22;56665;41.106;16.688;2022-08-05T16:39:32;31.64;41.16
69464;DHT22;56665;41.106;16.688;2022-08-05T16:42:35;31.59;41.08
69464;DHT22;56665;41.106;16.688;2022-08-05T16:45:39;31.57;42.73
69464;DHT22;56665;41.106;16.688;2022-08-05T16:48:43;31.33;43.73
69464;DHT22;56665;41.106;16.688;2022-08-05T16:51:47;31.37;43.99
69464;DHT22;56665;41.106;16.688;2022-08-05T16:54:51;31.37;45.64
69464;DHT22;56665;41.106;16.688;2022-08-05T16:57:54;31.30;46.19
69464;DHT22;56665;41.106;16.688;2022-08-05T17:00:58;31.23;44.03
69464;DHT22;56665;41.106;16.688;2022-08-05T17:04:03;31.27;44.98
69464;DHT22;56665;41.106;16.688;2022-08-05T17:07:07;31.30;46.03
69464;DHT22;56665;41.106;16.688;2022-08-05T17:10:11;31.32;44.97
69464;DHT22;56665;41.106;16.688;2022-08-05T17:13:16;31.30;41.41
69464;DHT22;56665;41.106;16.688;2022-08-05T17:16:20;31.32;41.69
69464;DHT22;56665;41.106;16.688;2022-08-05T17:19:24;31.33;42.83
69464;DHT22;56665;41.106;16.688;2022-08-05T17:22:28;31.26;43.29
69464;DHT22;56665;41.106;16.688;2022-08-05T17:25:32;31.26;43.61
69464;DHT22;56665;41.106;16.688;2022-08-05T17:28:35;31.25;43.84
69464;DHT22;56665;41.106;16.688;2022-08-05T17:31:41;31.21;44.43
69464;DHT22;56665;41.106;16.688;2022-08-05T17:34:46;31.14;44.57
69464;DHT22;56665;41.106;16.688;2022-08-05T17:37:50;31.09;44.69
69464;DHT22;56665;41.106;16.688;2022-08-05T17:40:54;31.05;44.77
69464;DHT22;56665;41.106;16.688;2022-08-05T17:44:02;30.94;44.97
69464;DHT22;56665;41.106;16.688;2022-08-05T17:47:06;30.89;45.15
69464;DHT22;56665;41.106;16.688;2022-08-05T17:50:10;30.81;45.12
69464;DHT22;56665;41.106;16.688;2022-08-05T17:53:14;30.72;45.42
69464;DHT22;56665;41.106;16.688;2022-08-05T17:56:17;30.64;45.34
69464;DHT22;56665;41.106;16.688;2022-08-05T17:59:21;30.58;45.34
69464;DHT22;56665;41.106;16.688;2022-08-05T18:02:25;30.51;45.44
69464;DHT22;56665;41.106;16.688;2022-08-05T18:05:28;30.44;45.65
69464;DHT22;56665;41.106;16.688;2022-08-05T18:08:33;30.36;45.92
69464;DHT22;56665;41.106;16.688;2022-08-05T18:11:37;30.33;46.26
69464;DHT22;56665;41.106;16.688;2022-08-05T18:14:40;30.28;45.82
69464;DHT22;56665;41.106;16.688;2022-08-05T18:17:45;30.28;45.67
69464;DHT22;56665;41.106;16.688;2022-08-05T18:20:48;30.23;45.81
69464;DHT22;56665;41.106;16.688;2022-08-05T18:23:52;30.16;45.99
69464;DHT22;56665;41.106;16.688;2022-08-05T18:26:55;30.09;46.00
69464;DHT22;56665;41.106;16.688;2022-08-05T18:29:59;30.03;46.30
69464;DHT22;56665;41.106;16.688;2022-08-05T18:33:03;29.98;46.16
69464;DHT22;56665;41.106;16.688;2022-08-05T18:36:07;29.98;46.09
69464;DHT22;56665;41.106;16.688;2022-08-05T18:39:11;29.96;46.12
69464;DHT22;56665;41.106;16.688;2022-08-05T18:42:14;29.93;46.54
69464;DHT22;56665;41.106;16.688;2022-08-05T18:45:18;29.85;46.90
69464;DHT22;56665;41.106;16.688;2022-08-05T18:48:22;29.75;47.15
69464;DHT22;56665;41.106;16.688;2022-08-05T18:51:26;29.69;47.06
69464;DHT22;56665;41.106;16.688;2022-08-05T18:54:49;29.61;46.99
69464;DHT22;56665;41.106;16.688;2022-08-05T18:57:53;29.55;46.88
69464;DHT22;56665;41.106;16.688;2022-08-05T19:00:57;29.48;47.05
69464;DHT22;56665;41.106;16.688;2022-08-05T19:04:02;29.42;47.27
69464;DHT22;56665;41.106;16.688;2022-08-05T19:07:07;29.34;46.94
69464;DHT22;56665;41.106;16.688;2022-08-05T19:10:10;29.24;47.02
69464;DHT22;56665;41.106;16.688;2022-08-05T19:13:15;29.20;47.11
69464;DHT22;56665;41.106;16.688;2022-08-05T19:16:19;29.14;47.17
69464;DHT22;56665;41.106;16.688;2022-08-05T19:19:22;29.12;46.78
69464;DHT22;56665;41.106;16.688;2022-08-05T19:22:26;29.07;46.75
69464;DHT22;56665;41.106;16.688;2022-08-05T19:25:30;29.03;46.39
69464;DHT22;56665;41.106;16.688;2022-08-05T19:28:36;29.00;46.49
69464;DHT22;56665;41.106;16.688;2022-08-05T19:31:40;28.97;46.10
69464;DHT22;56665;41.106;16.688;2022-08-05T19:34:45;28.91;46.22
69464;DHT22;56665;41.106;16.688;2022-08-05T19:37:49;28.91;46.25